sensor_id;sensor_type;location;lat;lon;timestamp;P1;durP1;ratioP1;P2;durP2;ratioP2
75698;SDS011;64313;51.018;13.742;2023-03-18T00:00:40;8.13;;;3.40;;
75698;SDS011;64313;51.018;13.742;2023-03-18T00:03:06;8.77;;;3.35;;
75698;SDS011;64313;51.018;13.742;2023-03-18T00:05:32;8.98;;;3.35;;
75698;SDS011;64313;51.018;13.742;2023-03-18T00:07:58;7.72;;;3.22;;
75698;SDS011;64313;51.018;13.742;2023-03-18T00:10:24;8.90;;;3.25;;
75698;SDS011;64313;51.018;13.742;2023-03-18T00:12:50;8.57;;;3.28;;
75698;SDS011;64313;51.018;13.742;2023-03-18T00:15:17;8.85;;;3.88;;
75698;SDS011;64313;51.018;13.742;2023-03-18T00:17:43;8.07;;;3.30;;
75698;SDS011;64313;51.018;13.742;2023-03-18T00:20:10;6.88;;;3.15;;
75698;SDS011;64313;51.018;13.742;2023-03-18T00:22:37;8.15;;;3.35;;
75698;SDS011;64313;51.018;13.742;2023-03-18T00:25:04;8.38;;;3.38;;
75698;SDS011;64313;51.018;13.742;2023-03-18T00:27:31;8.48;;;3.40;;
75698;SDS011;64313;51.018;13.742;2023-03-18T00:29:56;9.13;;;3.65;;
75698;SDS011;64313;51.018;13.742;2023-03-18T00:32:24;8.05;;;3.25;;
75698;SDS011;64313;51.018;13.742;2023-03-18T00:34:50;7.70;;;3.47;;
75698;SDS011;64313;51.018;13.742;2023-03-18T00:37:16;6.88;;;3.00;;
75698;SDS011;64313;51.018;13.742;2023-03-18T00:39:54;10.65;;;3.65;;
75698;SDS011;64313;51.018;13.742;2023-03-18T00:42:19;7.10;;;2.92;;
75698;SDS011;64313;51.018;13.742;2023-03-18T00:44:44;7.05;;;2.80;;
75698;SDS011;64313;51.018;13.742;2023-03-18T00:47:11;7.63;;;3.15;;
75698;SDS011;64313;51.018;13.742;2023-03-18T00:49:36;7.72;;;3.22;;
75698;SDS011;64313;51.018;13.742;2023-03-18T00:52:01;7.07;;;3.10;;
75698;SDS011;64313;51.018;13.742;2023-03-18T00:54:27;7.75;;;3.22;;
75698;SDS011;64313;51.018;13.742;2023-03-18T00:56:53;7.72;;;3.20;;
75698;SDS011;64313;51.018;13.742;2023-03-18T00:59:18;6.72;;;2.97;;
75698;SDS011;64313;51.018;13.742;2023-03-18T01:01:44;7.70;;;3.28;;
75698;SDS011;64313;51.018;13.742;2023-03-18T01:04:09;7.22;;;3.10;;
75698;SDS011;64313;51.018;13.742;2023-03-18T01:06:35;9.95;;;3.50;;
75698;SDS011;64313;51.018;13.742;2023-03-18T01:09:02;7.15;;;2.78;;
75698;SDS011;64313;51.018;13.742;2023-03-18T01:11:29;9.52;;;3.28;;
75698;SDS011;64313;51.018;13.742;2023-03-18T01:13:55;8.10;;;3.25;;
75698;SDS011;64313;51.018;13.742;2023-03-18T01:16:20;6.88;;;3.00;;
75698;SDS011;64313;51.018;13.742;2023-03-18T01:18:46;7.72;;;3.25;;
75698;SDS011;64313;51.018;13.742;2023-03-18T01:21:12;7.95;;;3.30;;
75698;SDS011;64313;51.018;13.742;2023-03-18T01:23:45;8.00;;;3.42;;
75698;SDS011;64313;51.018;13.742;2023-03-18T01:26:11;7.28;;;3.20;;
75698;SDS011;64313;51.018;13.742;2023-03-18T01:28:39;6.72;;;3.13;;
75698;SDS011;64313;51.018;13.742;2023-03-18T01:31:06;7.40;;;3.03;;
75698;SDS011;64313;51.018;13.742;2023-03-18T01:33:32;8.60;;;3.42;;
75698;SDS011;64313;51.018;13.742;2023-03-18T01:35:58;8.10;;;3.15;;
75698;SDS011;64313;51.018;13.742;2023-03-18T01:38:28;8.05;;;3.35;;
75698;SDS011;64313;51.018;13.742;2023-03-18T01:40:57;8.20;;;3.47;;
75698;SDS011;64313;51.018;13.742;2023-03-18T01:43:30;7.57;;;3.08;;
75698;SDS011;64313;51.018;13.742;2023-03-18T01:45:59;8.50;;;2.67;;
75698;SDS011;64313;51.018;13.742;2023-03-18T01:48:27;8.85;;;3.13;;
75698;SDS011;64313;51.018;13.742;2023-03-18T01:51:05;8.95;;;3.40;;
75698;SDS011;64313;51.018;13.742;2023-03-18T01:53:35;7.57;;;3.10;;
75698;SDS011;64313;51.018;13.742;2023-03-18T01:56:05;8.60;;;3.60;;
75698;SDS011;64313;51.018;13.742;2023-03-18T01:58:34;9.02;;;3.47;;
75698;SDS011;64313;51.018;13.742;2023-03-18T02:01:05;8.05;;;3.25;;
75698;SDS011;64313;51.018;13.742;2023-03-18T02:03:36;9.45;;;3.53;;
75698;SDS011;64313;51.018;13.742;2023-03-18T02:06:06;8.85;;;3.45;;
75698;SDS011;64313;51.018;13.742;2023-03-18T02:08:32;7.72;;;3.25;;
75698;SDS011;64313;51.018;13.742;2023-03-18T02:10:59;8.93;;;3.15;;
75698;SDS011;64313;51.018;13.742;2023-03-18T02:13:25;9.13;;;3.53;;
75698;SDS011;64313;51.018;13.742;2023-03-18T02:15:53;7.95;;;3.30;;
75698;SDS011;64313;51.018;13.742;2023-03-18T02:18:23;7.82;;;3.25;;
75698;SDS011;64313;51.018;13.742;2023-03-18T02:21:15;8.15;;;3.28;;
75698;SDS011;64313;51.018;13.742;2023-03-18T02:29:40;7.68;;;3.50;;
75698;SDS011;64313;51.018;13.742;2023-03-18T02:32:12;7.75;;;3.22;;
75698;SDS011;64313;51.018;13.742;2023-03-18T02:34:39;8.05;;;3.00;;
75698;SDS011;64313;51.018;13.742;2023-03-18T02:37:07;7.22;;;3.22;;
75698;SDS011;64313;51.018;13.742;2023-03-18T02:39:34;8.63;;;3.20;;
75698;SDS011;64313;51.018;13.742;2023-03-18T02:42:00;11.60;;;3.35;;
75698;SDS011;64313;51.018;13.742;2023-03-18T02:44:27;8.20;;;3.15;;
75698;SDS011;64313;51.018;13.742;2023-03-18T02:47:14;6.72;;;2.83;;
75698;SDS011;64313;51.018;13.742;2023-03-18T02:49:43;7.65;;;3.00;;
75698;SDS011;64313;51.018;13.742;2023-03-18T02:52:11;7.93;;;3.10;;
75698;SDS011;64313;51.018;13.742;2023-03-18T02:54:36;7.25;;;3.15;;
75698;SDS011;64313;51.018;13.742;2023-03-18T02:57:02;8.02;;;3.13;;
75698;SDS011;64313;51.018;13.742;2023-03-18T02:59:28;8.15;;;3.30;;
75698;SDS011;64313;51.018;13.742;2023-03-18T03:01:56;8.05;;;3.03;;
75698;SDS011;64313;51.018;13.742;2023-03-18T03:04:22;7.63;;;3.13;;
75698;SDS011;64313;51.018;13.742;2023-03-18T03:06:49;8.30;;;3.17;;
75698;SDS011;64313;51.018;13.742;2023-03-18T03:09:19;6.97;;;3.17;;
75698;SDS011;64313;51.018;13.742;2023-03-18T03:11:46;8.02;;;3.70;;
75698;SDS011;64313;51.018;13.742;2023-03-18T03:14:17;8.05;;;3.65;;
75698;SDS011;64313;51.018;13.742;2023-03-18T03:16:44;6.93;;;3.00;;
75698;SDS011;64313;51.018;13.742;2023-03-18T03:19:10;8.55;;;3.40;;
75698;SDS011;64313;51.018;13.742;2023-03-18T03:21:36;7.43;;;2.92;;
75698;SDS011;64313;51.018;13.742;2023-03-18T03:24:02;6.78;;;3.13;;
75698;SDS011;64313;51.018;13.742;2023-03-18T03:26:28;8.60;;;3.42;;
75698;SDS011;64313;51.018;13.742;2023-03-18T03:28:54;8.90;;;3.10;;
75698;SDS011;64313;51.018;13.742;2023-03-18T03:31:19;7.55;;;3.10;;
75698;SDS011;64313;51.018;13.742;2023-03-18T03:33:45;8.07;;;3.13;;
75698;SDS011;64313;51.018;13.742;2023-03-18T03:36:13;8.73;;;3.78;;
75698;SDS011;64313;51.018;13.742;2023-03-18T03:38:40;9.43;;;3.88;;
75698;SDS011;64313;51.018;13.742;2023-03-18T03:41:06;7.22;;;3.40;;
75698;SDS011;64313;51.018;13.742;2023-03-18T03:43:34;7.53;;;3.33;;
75698;SDS011;64313;51.018;13.742;2023-03-18T03:46:02;7.22;;;3.10;;
75698;SDS011;64313;51.018;13.742;2023-03-18T03:48:28;7.70;;;3.28;;
75698;SDS011;64313;51.018;13.742;2023-03-18T03:50:53;9.30;;;3.60;;
75698;SDS011;64313;51.018;13.742;2023-03-18T03:53:19;7.10;;;3.55;;
75698;SDS011;64313;51.018;13.742;2023-03-18T03:58:10;8.82;;;3.60;;
75698;SDS011;64313;51.018;13.742;2023-03-18T04:00:36;7.75;;;3.30;;
75698;SDS011;64313;51.018;13.742;2023-03-18T04:03:02;7.72;;;3.33;;
75698;SDS011;64313;51.018;13.742;2023-03-18T04:05:29;9.45;;;3.55;;
75698;SDS011;64313;51.018;13.742;2023-03-18T04:07:57;10.25;;;3.40;;
75698;SDS011;64313;51.018;13.742;2023-03-18T04:10:32;7.93;;;3.10;;
75698;SDS011;64313;51.018;13.742;2023-03-18T04:12:59;8.45;;;3.05;;
75698;SDS011;64313;51.018;13.742;2023-03-18T04:15:26;7.80;;;3.20;;
75698;SDS011;64313;51.018;13.742;2023-03-18T04:17:51;8.68;;;3.30;;
75698;SDS011;64313;51.018;13.742;2023-03-18T04:20:18;9.38;;;3.38;;
75698;SDS011;64313;51.018;13.742;2023-03-18T04:22:44;8.98;;;3.25;;
75698;SDS011;64313;51.018;13.742;2023-03-18T04:25:10;7.40;;;3.15;;
75698;SDS011;64313;51.018;13.742;2023-03-18T04:27:38;8.45;;;3.35;;
75698;SDS011;64313;51.018;13.742;2023-03-18T04:30:06;8.15;;;3.30;;
75698;SDS011;64313;51.018;13.742;2023-03-18T04:32:44;7.85;;;3.38;;
75698;SDS011;64313;51.018;13.742;2023-03-18T04:35:10;7.40;;;3.10;;
75698;SDS011;64313;51.018;13.742;2023-03-18T04:37:36;7.75;;;3.20;;
75698;SDS011;64313;51.018;13.742;2023-03-18T04:40:01;7.95;;;3.22;;
75698;SDS011;64313;51.018;13.742;2023-03-18T04:42:29;8.10;;;3.47;;
75698;SDS011;64313;51.018;13.742;2023-03-18T04:44:54;9.57;;;3.70;;
75698;SDS011;64313;51.018;13.742;2023-03-18T04:47:20;8.80;;;3.30;;
75698;SDS011;64313;51.018;13.742;2023-03-18T04:49:48;8.38;;;3.25;;
75698;SDS011;64313;51.018;13.742;2023-03-18T04:52:14;6.97;;;3.28;;
75698;SDS011;64313;51.018;13.742;2023-03-18T04:54:40;8.27;;;3.30;;
75698;SDS011;64313;51.018;13.742;2023-03-18T04:57:07;8.00;;;3.35;;
75698;SDS011;64313;51.018;13.742;2023-03-18T04:59:36;7.65;;;3.45;;
75698;SDS011;64313;51.018;13.742;2023-03-18T05:02:04;7.43;;;3.47;;
75698;SDS011;64313;51.018;13.742;2023-03-18T05:04:30;10.05;;;3.65;;
75698;SDS011;64313;51.018;13.742;2023-03-18T05:06:56;6.78;;;3.15;;
75698;SDS011;64313;51.018;13.742;2023-03-18T05:09:28;8.63;;;3.65;;
75698;SDS011;64313;51.018;13.742;2023-03-18T05:11:54;9.55;;;3.33;;
75698;SDS011;64313;51.018;13.742;2023-03-18T05:14:25;7.68;;;3.38;;
75698;SDS011;64313;51.018;13.742;2023-03-18T05:16:53;9.20;;;3.55;;
75698;SDS011;64313;51.018;13.742;2023-03-18T05:19:18;9.32;;;3.55;;
75698;SDS011;64313;51.018;13.742;2023-03-18T05:22:00;8.43;;;3.50;;
75698;SDS011;64313;51.018;13.742;2023-03-18T05:24:25;6.70;;;3.25;;
75698;SDS011;64313;51.018;13.742;2023-03-18T05:26:51;7.97;;;3.15;;
75698;SDS011;64313;51.018;13.742;2023-03-18T05:29:21;8.02;;;3.35;;
75698;SDS011;64313;51.018;13.742;2023-03-18T05:31:57;9.00;;;3.38;;
75698;SDS011;64313;51.018;13.742;2023-03-18T05:34:23;8.68;;;3.20;;
75698;SDS011;64313;51.018;13.742;2023-03-18T05:36:49;10.68;;;3.70;;
75698;SDS011;64313;51.018;13.742;2023-03-18T05:39:15;8.13;;;3.08;;
75698;SDS011;64313;51.018;13.742;2023-03-18T05:41:41;8.38;;;3.65;;
75698;SDS011;64313;51.018;13.742;2023-03-18T05:44:09;8.57;;;3.50;;
75698;SDS011;64313;51.018;13.742;2023-03-18T05:46:37;8.07;;;3.17;;
75698;SDS011;64313;51.018;13.742;2023-03-18T05:49:08;8.40;;;3.30;;
75698;SDS011;64313;51.018;13.742;2023-03-18T05:51:45;12.82;;;3.30;;
75698;SDS011;64313;51.018;13.742;2023-03-18T05:54:16;7.15;;;3.33;;
75698;SDS011;64313;51.018;13.742;2023-03-18T05:56:43;7.93;;;3.05;;
75698;SDS011;64313;51.018;13.742;2023-03-18T05:59:10;8.65;;;3.60;;
75698;SDS011;64313;51.018;13.742;2023-03-18T06:01:44;7.18;;;3.30;;
75698;SDS011;64313;51.018;13.742;2023-03-18T06:04:09;9.07;;;3.53;;
75698;SDS011;64313;51.018;13.742;2023-03-18T06:09:06;10.45;;;3.75;;
75698;SDS011;64313;51.018;13.742;2023-03-18T06:11:33;7.80;;;3.35;;
75698;SDS011;64313;51.018;13.742;2023-03-18T06:13:58;6.97;;;2.90;;
75698;SDS011;64313;51.018;13.742;2023-03-18T06:16:24;10.73;;;3.63;;
75698;SDS011;64313;51.018;13.742;2023-03-18T06:18:52;9.18;;;3.60;;
75698;SDS011;64313;51.018;13.742;2023-03-18T06:21:17;8.63;;;3.00;;
75698;SDS011;64313;51.018;13.742;2023-03-18T06:23:42;8.02;;;3.83;;
75698;SDS011;64313;51.018;13.742;2023-03-18T06:26:09;7.80;;;3.53;;
75698;SDS011;64313;51.018;13.742;2023-03-18T06:28:42;7.13;;;3.00;;
75698;SDS011;64313;51.018;13.742;2023-03-18T06:31:09;7.43;;;3.30;;
75698;SDS011;64313;51.018;13.742;2023-03-18T06:33:36;8.13;;;3.22;;
75698;SDS011;64313;51.018;13.742;2023-03-18T06:36:03;7.28;;;3.17;;
75698;SDS011;64313;51.018;13.742;2023-03-18T06:38:29;7.93;;;3.08;;
75698;SDS011;64313;51.018;13.742;2023-03-18T06:40:56;10.63;;;3.30;;
75698;SDS011;64313;51.018;13.742;2023-03-18T06:43:22;9.82;;;3.20;;
75698;SDS011;64313;51.018;13.742;2023-03-18T06:45:48;7.57;;;3.40;;
75698;SDS011;64313;51.018;13.742;2023-03-18T06:48:13;7.80;;;3.17;;
75698;SDS011;64313;51.018;13.742;2023-03-18T06:50:41;8.02;;;3.17;;
75698;SDS011;64313;51.018;13.742;2023-03-18T06:53:14;9.35;;;3.80;;
75698;SDS011;64313;51.018;13.742;2023-03-18T06:55:41;7.60;;;3.72;;
75698;SDS011;64313;51.018;13.742;2023-03-18T06:58:07;8.25;;;2.92;;
75698;SDS011;64313;51.018;13.742;2023-03-18T07:00:41;9.18;;;3.60;;
75698;SDS011;64313;51.018;13.742;2023-03-18T07:03:14;8.80;;;3.55;;
75698;SDS011;64313;51.018;13.742;2023-03-18T07:05:40;8.00;;;3.65;;
75698;SDS011;64313;51.018;13.742;2023-03-18T07:08:06;8.27;;;3.25;;
75698;SDS011;64313;51.018;13.742;2023-03-18T07:10:33;6.85;;;3.33;;
75698;SDS011;64313;51.018;13.742;2023-03-18T07:13:06;7.93;;;3.22;;
75698;SDS011;64313;51.018;13.742;2023-03-18T07:15:32;6.80;;;3.17;;
75698;SDS011;64313;51.018;13.742;2023-03-18T07:17:58;10.18;;;3.50;;
75698;SDS011;64313;51.018;13.742;2023-03-18T07:20:24;9.60;;;3.10;;
75698;SDS011;64313;51.018;13.742;2023-03-18T07:22:50;7.90;;;3.25;;
75698;SDS011;64313;51.018;13.742;2023-03-18T07:27:41;7.78;;;3.50;;
75698;SDS011;64313;51.018;13.742;2023-03-18T07:30:06;9.13;;;3.25;;
75698;SDS011;64313;51.018;13.742;2023-03-18T07:32:33;9.95;;;4.05;;
75698;SDS011;64313;51.018;13.742;2023-03-18T07:35:02;9.38;;;3.33;;
75698;SDS011;64313;51.018;13.742;2023-03-18T07:37:28;8.32;;;3.63;;
75698;SDS011;64313;51.018;13.742;2023-03-18T07:39:54;8.77;;;3.60;;
75698;SDS011;64313;51.018;13.742;2023-03-18T07:42:20;7.18;;;3.38;;
75698;SDS011;64313;51.018;13.742;2023-03-18T07:44:45;8.55;;;3.70;;
75698;SDS011;64313;51.018;13.742;2023-03-18T07:47:11;8.82;;;3.47;;
75698;SDS011;64313;51.018;13.742;2023-03-18T07:49:39;9.15;;;3.45;;
75698;SDS011;64313;51.018;13.742;2023-03-18T07:52:05;7.30;;;3.65;;
75698;SDS011;64313;51.018;13.742;2023-03-18T07:54:31;8.18;;;3.45;;
75698;SDS011;64313;51.018;13.742;2023-03-18T07:56:57;9.60;;;3.72;;
75698;SDS011;64313;51.018;13.742;2023-03-18T07:59:22;7.55;;;3.35;;
75698;SDS011;64313;51.018;13.742;2023-03-18T08:01:48;6.47;;;3.35;;
75698;SDS011;64313;51.018;13.742;2023-03-18T08:04:14;7.78;;;3.53;;
75698;SDS011;64313;51.018;13.742;2023-03-18T08:06:40;9.32;;;3.90;;
75698;SDS011;64313;51.018;13.742;2023-03-18T08:09:06;7.70;;;3.60;;
75698;SDS011;64313;51.018;13.742;2023-03-18T08:11:32;6.85;;;3.25;;
75698;SDS011;64313;51.018;13.742;2023-03-18T08:13:58;8.52;;;3.45;;
75698;SDS011;64313;51.018;13.742;2023-03-18T08:16:23;9.23;;;3.70;;
75698;SDS011;64313;51.018;13.742;2023-03-18T08:18:50;7.03;;;3.40;;
75698;SDS011;64313;51.018;13.742;2023-03-18T08:21:16;7.93;;;3.30;;
75698;SDS011;64313;51.018;13.742;2023-03-18T08:23:41;9.75;;;3.42;;
75698;SDS011;64313;51.018;13.742;2023-03-18T08:26:06;10.50;;;3.78;;
75698;SDS011;64313;51.018;13.742;2023-03-18T08:28:32;8.68;;;3.22;;
75698;SDS011;64313;51.018;13.742;2023-03-18T08:30:57;8.05;;;3.30;;
75698;SDS011;64313;51.018;13.742;2023-03-18T08:33:23;7.57;;;3.33;;
75698;SDS011;64313;51.018;13.742;2023-03-18T08:35:51;7.10;;;3.08;;
75698;SDS011;64313;51.018;13.742;2023-03-18T08:38:16;8.95;;;3.70;;
75698;SDS011;64313;51.018;13.742;2023-03-18T08:40:42;9.57;;;3.22;;
75698;SDS011;64313;51.018;13.742;2023-03-18T08:43:07;8.82;;;3.45;;
75698;SDS011;64313;51.018;13.742;2023-03-18T08:45:34;7.38;;;3.42;;
75698;SDS011;64313;51.018;13.742;2023-03-18T08:48:00;7.53;;;3.05;;
75698;SDS011;64313;51.018;13.742;2023-03-18T08:50:26;7.40;;;3.47;;
75698;SDS011;64313;51.018;13.742;2023-03-18T08:52:54;9.50;;;3.53;;
75698;SDS011;64313;51.018;13.742;2023-03-18T08:55:22;7.40;;;3.03;;
75698;SDS011;64313;51.018;13.742;2023-03-18T08:57:51;7.45;;;3.33;;
75698;SDS011;64313;51.018;13.742;2023-03-18T09:00:17;6.88;;;3.30;;
75698;SDS011;64313;51.018;13.742;2023-03-18T09:02:44;7.90;;;3.58;;
75698;SDS011;64313;51.018;13.742;2023-03-18T09:05:09;8.68;;;3.47;;
75698;SDS011;64313;51.018;13.742;2023-03-18T09:07:34;9.63;;;3.60;;
75698;SDS011;64313;51.018;13.742;2023-03-18T09:10:00;8.82;;;3.70;;
75698;SDS011;64313;51.018;13.742;2023-03-18T09:12:25;8.55;;;3.08;;
75698;SDS011;64313;51.018;13.742;2023-03-18T09:14:50;8.13;;;3.85;;
75698;SDS011;64313;51.018;13.742;2023-03-18T09:17:16;7.45;;;3.60;;
75698;SDS011;64313;51.018;13.742;2023-03-18T09:19:41;9.00;;;3.40;;
75698;SDS011;64313;51.018;13.742;2023-03-18T09:22:07;7.78;;;3.58;;
75698;SDS011;64313;51.018;13.742;2023-03-18T09:24:33;7.22;;;3.22;;
75698;SDS011;64313;51.018;13.742;2023-03-18T09:26:59;7.90;;;3.60;;
75698;SDS011;64313;51.018;13.742;2023-03-18T09:29:24;7.97;;;3.45;;
75698;SDS011;64313;51.018;13.742;2023-03-18T09:31:49;9.98;;;3.70;;
75698;SDS011;64313;51.018;13.742;2023-03-18T09:34:16;9.20;;;3.38;;
75698;SDS011;64313;51.018;13.742;2023-03-18T09:36:41;7.93;;;3.22;;
75698;SDS011;64313;51.018;13.742;2023-03-18T09:39:14;7.63;;;3.22;;
75698;SDS011;64313;51.018;13.742;2023-03-18T09:42:02;8.50;;;3.22;;
75698;SDS011;64313;51.018;13.742;2023-03-18T09:44:48;9.57;;;3.55;;
75698;SDS011;64313;51.018;13.742;2023-03-18T09:47:22;8.10;;;3.45;;
75698;SDS011;64313;51.018;13.742;2023-03-18T09:52:36;7.65;;;3.70;;
75698;SDS011;64313;51.018;13.742;2023-03-18T09:55:14;12.50;;;3.80;;
75698;SDS011;64313;51.018;13.742;2023-03-18T09:58:00;6.95;;;3.20;;
75698;SDS011;64313;51.018;13.742;2023-03-18T10:00:30;8.18;;;3.65;;
75698;SDS011;64313;51.018;13.742;2023-03-18T10:03:09;8.50;;;3.50;;
75698;SDS011;64313;51.018;13.742;2023-03-18T10:05:42;8.45;;;3.50;;
75698;SDS011;64313;51.018;13.742;2023-03-18T10:08:19;12.82;;;3.85;;
75698;SDS011;64313;51.018;13.742;2023-03-18T10:10:55;8.13;;;3.42;;
75698;SDS011;64313;51.018;13.742;2023-03-18T10:13:27;9.65;;;3.90;;
75698;SDS011;64313;51.018;13.742;2023-03-18T10:15:56;8.93;;;3.60;;
75698;SDS011;64313;51.018;13.742;2023-03-18T10:23:58;8.70;;;3.60;;
75698;SDS011;64313;51.018;13.742;2023-03-18T10:26:51;9.82;;;3.92;;
75698;SDS011;64313;51.018;13.742;2023-03-18T10:30:22;9.52;;;4.38;;
75698;SDS011;64313;51.018;13.742;2023-03-18T10:35:13;8.95;;;3.80;;
75698;SDS011;64313;51.018;13.742;2023-03-18T10:42:47;8.10;;;3.30;;
75698;SDS011;64313;51.018;13.742;2023-03-18T10:45:24;11.63;;;3.30;;
75698;SDS011;64313;51.018;13.742;2023-03-18T10:47:56;7.07;;;3.30;;
75698;SDS011;64313;51.018;13.742;2023-03-18T10:50:42;10.10;;;3.63;;
75698;SDS011;64313;51.018;13.742;2023-03-18T10:55:46;9.25;;;3.67;;
75698;SDS011;64313;51.018;13.742;2023-03-18T10:58:20;7.95;;;3.72;;
75698;SDS011;64313;51.018;13.742;2023-03-18T11:00:45;7.63;;;3.58;;
75698;SDS011;64313;51.018;13.742;2023-03-18T11:03:26;8.02;;;3.40;;
75698;SDS011;64313;51.018;13.742;2023-03-18T11:05:58;8.93;;;3.80;;
75698;SDS011;64313;51.018;13.742;2023-03-18T11:11:13;8.93;;;3.70;;
75698;SDS011;64313;51.018;13.742;2023-03-18T11:13:44;8.65;;;3.47;;
75698;SDS011;64313;51.018;13.742;2023-03-18T11:16:22;6.97;;;3.30;;
75698;SDS011;64313;51.018;13.742;2023-03-18T11:18:53;8.68;;;3.83;;
75698;SDS011;64313;51.018;13.742;2023-03-18T11:21:21;9.32;;;3.50;;
75698;SDS011;64313;51.018;13.742;2023-03-18T11:23:55;9.88;;;3.85;;
75698;SDS011;64313;51.018;13.742;2023-03-18T11:26:52;9.77;;;3.95;;
75698;SDS011;64313;51.018;13.742;2023-03-18T11:29:30;8.05;;;3.38;;
75698;SDS011;64313;51.018;13.742;2023-03-18T11:32:00;8.07;;;3.58;;
75698;SDS011;64313;51.018;13.742;2023-03-18T11:34:30;9.45;;;4.15;;
75698;SDS011;64313;51.018;13.742;2023-03-18T11:36:57;8.40;;;4.00;;
75698;SDS011;64313;51.018;13.742;2023-03-18T11:39:29;8.38;;;4.00;;
75698;SDS011;64313;51.018;13.742;2023-03-18T11:41:57;8.77;;;3.72;;
75698;SDS011;64313;51.018;13.742;2023-03-18T11:44:26;8.77;;;4.30;;
75698;SDS011;64313;51.018;13.742;2023-03-18T11:46:58;8.70;;;4.30;;
75698;SDS011;64313;51.018;13.742;2023-03-18T11:49:27;9.55;;;4.18;;
75698;SDS011;64313;51.018;13.742;2023-03-18T11:51:59;8.82;;;4.13;;
75698;SDS011;64313;51.018;13.742;2023-03-18T11:57:44;10.90;;;4.40;;
75698;SDS011;64313;51.018;13.742;2023-03-18T12:00:36;11.60;;;4.22;;
75698;SDS011;64313;51.018;13.742;2023-03-18T12:06:19;11.20;;;4.60;;
75698;SDS011;64313;51.018;13.742;2023-03-18T12:11:44;8.95;;;4.78;;
75698;SDS011;64313;51.018;13.742;2023-03-18T12:17:20;10.35;;;4.63;;
75698;SDS011;64313;51.018;13.742;2023-03-18T12:20:02;11.05;;;5.45;;
75698;SDS011;64313;51.018;13.742;2023-03-18T12:33:55;10.98;;;4.53;;
75698;SDS011;64313;51.018;13.742;2023-03-18T12:36:45;14.95;;;5.07;;
75698;SDS011;64313;51.018;13.742;2023-03-18T12:42:10;10.05;;;4.55;;
75698;SDS011;64313;51.018;13.742;2023-03-18T12:44:47;10.93;;;4.93;;
75698;SDS011;64313;51.018;13.742;2023-03-18T12:47:40;9.73;;;4.97;;
75698;SDS011;64313;51.018;13.742;2023-03-18T12:53:08;13.90;;;5.47;;
75698;SDS011;64313;51.018;13.742;2023-03-18T12:55:48;11.93;;;5.22;;
75698;SDS011;64313;51.018;13.742;2023-03-18T12:58:26;10.77;;;4.60;;
75698;SDS011;64313;51.018;13.742;2023-03-18T13:00:56;12.10;;;4.75;;
75698;SDS011;64313;51.018;13.742;2023-03-18T13:03:42;9.70;;;4.47;;
75698;SDS011;64313;51.018;13.742;2023-03-18T13:12:10;9.50;;;4.28;;
75698;SDS011;64313;51.018;13.742;2023-03-18T13:14:49;11.00;;;4.93;;
75698;SDS011;64313;51.018;13.742;2023-03-18T13:17:23;11.02;;;4.93;;
75698;SDS011;64313;51.018;13.742;2023-03-18T13:20:11;10.70;;;4.97;;
75698;SDS011;64313;51.018;13.742;2023-03-18T13:28:29;11.45;;;4.70;;
75698;SDS011;64313;51.018;13.742;2023-03-18T13:33:58;13.63;;;4.95;;
75698;SDS011;64313;51.018;13.742;2023-03-18T13:42:47;12.38;;;4.85;;
75698;SDS011;64313;51.018;13.742;2023-03-18T13:45:19;10.43;;;4.88;;
75698;SDS011;64313;51.018;13.742;2023-03-18T13:47:57;10.23;;;4.63;;
75698;SDS011;64313;51.018;13.742;2023-03-18T13:50:26;11.35;;;5.32;;
75698;SDS011;64313;51.018;13.742;2023-03-18T13:52:57;11.20;;;5.15;;
75698;SDS011;64313;51.018;13.742;2023-03-18T13:55:41;11.13;;;5.05;;
75698;SDS011;64313;51.018;13.742;2023-03-18T14:03:17;13.05;;;5.43;;
75698;SDS011;64313;51.018;13.742;2023-03-18T14:05:50;12.65;;;5.65;;
75698;SDS011;64313;51.018;13.742;2023-03-18T14:21:51;12.80;;;5.55;;
75698;SDS011;64313;51.018;13.742;2023-03-18T14:24:28;12.13;;;5.82;;
75698;SDS011;64313;51.018;13.742;2023-03-18T14:29:25;11.52;;;5.78;;
75698;SDS011;64313;51.018;13.742;2023-03-18T14:31:58;13.50;;;5.75;;
75698;SDS011;64313;51.018;13.742;2023-03-18T14:34:27;12.05;;;5.57;;
75698;SDS011;64313;51.018;13.742;2023-03-18T14:39:30;11.30;;;5.63;;
75698;SDS011;64313;51.018;13.742;2023-03-18T14:41:58;12.43;;;5.53;;
75698;SDS011;64313;51.018;13.742;2023-03-18T14:44:33;11.43;;;5.50;;
75698;SDS011;64313;51.018;13.742;2023-03-18T14:47:15;12.23;;;5.88;;
75698;SDS011;64313;51.018;13.742;2023-03-18T14:49:49;10.80;;;5.38;;
75698;SDS011;64313;51.018;13.742;2023-03-18T14:52:35;11.70;;;5.78;;
75698;SDS011;64313;51.018;13.742;2023-03-18T14:55:04;11.38;;;5.88;;
75698;SDS011;64313;51.018;13.742;2023-03-18T14:57:38;14.30;;;6.35;;
75698;SDS011;64313;51.018;13.742;2023-03-18T15:00:03;12.30;;;6.22;;
75698;SDS011;64313;51.018;13.742;2023-03-18T15:02:31;11.85;;;6.57;;
75698;SDS011;64313;51.018;13.742;2023-03-18T15:05:01;12.10;;;5.88;;
75698;SDS011;64313;51.018;13.742;2023-03-18T15:07:33;12.95;;;6.05;;
75698;SDS011;64313;51.018;13.742;2023-03-18T15:10:01;12.77;;;6.07;;
75698;SDS011;64313;51.018;13.742;2023-03-18T15:15:04;15.68;;;6.07;;
75698;SDS011;64313;51.018;13.742;2023-03-18T15:17:31;11.60;;;5.78;;
75698;SDS011;64313;51.018;13.742;2023-03-18T15:19:57;12.45;;;5.97;;
75698;SDS011;64313;51.018;13.742;2023-03-18T15:22:24;12.15;;;6.22;;
75698;SDS011;64313;51.018;13.742;2023-03-18T15:25:02;13.10;;;6.07;;
75698;SDS011;64313;51.018;13.742;2023-03-18T15:27:30;11.05;;;5.57;;
75698;SDS011;64313;51.018;13.742;2023-03-18T15:29:58;11.10;;;5.95;;
75698;SDS011;64313;51.018;13.742;2023-03-18T15:32:41;11.40;;;5.80;;
75698;SDS011;64313;51.018;13.742;2023-03-18T15:37:36;11.43;;;5.82;;
75698;SDS011;64313;51.018;13.742;2023-03-18T15:42:52;13.02;;;5.88;;
75698;SDS011;64313;51.018;13.742;2023-03-18T15:45:24;12.23;;;5.80;;
75698;SDS011;64313;51.018;13.742;2023-03-18T15:47:52;13.75;;;6.50;;
75698;SDS011;64313;51.018;13.742;2023-03-18T15:52:43;13.38;;;6.40;;
75698;SDS011;64313;51.018;13.742;2023-03-18T15:55:26;13.20;;;6.75;;
75698;SDS011;64313;51.018;13.742;2023-03-18T15:57:55;14.55;;;6.38;;
75698;SDS011;64313;51.018;13.742;2023-03-18T16:00:21;12.57;;;6.40;;
75698;SDS011;64313;51.018;13.742;2023-03-18T16:02:47;11.63;;;6.20;;
75698;SDS011;64313;51.018;13.742;2023-03-18T16:05:21;12.50;;;6.13;;
75698;SDS011;64313;51.018;13.742;2023-03-18T16:07:49;11.00;;;6.47;;
75698;SDS011;64313;51.018;13.742;2023-03-18T16:10:16;14.10;;;6.38;;
75698;SDS011;64313;51.018;13.742;2023-03-18T16:12:46;14.05;;;6.80;;
75698;SDS011;64313;51.018;13.742;2023-03-18T16:15:18;14.07;;;6.93;;
75698;SDS011;64313;51.018;13.742;2023-03-18T16:17:49;13.80;;;6.55;;
75698;SDS011;64313;51.018;13.742;2023-03-18T16:20:19;13.95;;;6.57;;
75698;SDS011;64313;51.018;13.742;2023-03-18T16:22:47;13.07;;;7.00;;
75698;SDS011;64313;51.018;13.742;2023-03-18T16:25:12;13.00;;;6.35;;
75698;SDS011;64313;51.018;13.742;2023-03-18T16:27:39;13.20;;;6.80;;
75698;SDS011;64313;51.018;13.742;2023-03-18T16:30:15;13.73;;;6.53;;
75698;SDS011;64313;51.018;13.742;2023-03-18T16:32:53;15.45;;;7.35;;
75698;SDS011;64313;51.018;13.742;2023-03-18T16:35:20;14.10;;;7.30;;
75698;SDS011;64313;51.018;13.742;2023-03-18T16:37:48;13.48;;;7.07;;
75698;SDS011;64313;51.018;13.742;2023-03-18T16:40:15;12.98;;;6.90;;
75698;SDS011;64313;51.018;13.742;2023-03-18T16:42:42;14.80;;;7.22;;